Terminal Aerodrome Forecast
Issued by NWS Mobile, AL

Home | Current Version | Previous Version | Text Only | Print | Product List | Glossary On
Versions: 1 2 3 4 5 6 7 8 9 10 11 12 13 14 15
000
FTUS44 KMOB 211129
TAFMOB
TAF
KMOB 211129Z 2112/2212 01005KT P6SM SCT200
      TEMPO 2112/2113 5SM BR
     FM211600 02006KT P6SM VCSH SCT040 SCT250
      TEMPO 2118/2122 3SM TSRA OVC035CB
     FM220200 00000KT P6SM SCT250=

USA.gov is the U.S. government's official web portal to all federal, state and local government web resources and services.